sensor_id;sensor_type;location;lat;lon;timestamp;temperature;humidity
53045;DHT22;38930;52.766;6.884;2023-05-29T00:00:16;10.10;99.90
53045;DHT22;38930;52.766;6.884;2023-05-29T00:02:44;10.10;99.90
53045;DHT22;38930;52.766;6.884;2023-05-29T00:05:13;10.10;99.90
53045;DHT22;38930;52.766;6.884;2023-05-29T00:07:40;10.10;99.90
53045;DHT22;38930;52.766;6.884;2023-05-29T00:10:07;10.50;99.90
53045;DHT22;38930;52.766;6.884;2023-05-29T00:12:34;10.10;99.90
53045;DHT22;38930;52.766;6.884;2023-05-29T00:15:00;10.60;99.90
53045;DHT22;38930;52.766;6.884;2023-05-29T00:17:26;10.10;99.90
53045;DHT22;38930;52.766;6.884;2023-05-29T00:19:53;10.10;99.90
53045;DHT22;38930;52.766;6.884;2023-05-29T00:22:18;10.00;99.90
53045;DHT22;38930;52.766;6.884;2023-05-29T00:24:44;10.40;99.90
53045;DHT22;38930;52.766;6.884;2023-05-29T00:27:10;10.00;99.90
53045;DHT22;38930;52.766;6.884;2023-05-29T00:29:39;9.90;99.90
53045;DHT22;38930;52.766;6.884;2023-05-29T00:32:05;9.90;99.90
53045;DHT22;38930;52.766;6.884;2023-05-29T00:34:31;9.90;99.90
53045;DHT22;38930;52.766;6.884;2023-05-29T00:36:57;9.90;99.90
53045;DHT22;38930;52.766;6.884;2023-05-29T00:39:23;9.90;99.90
53045;DHT22;38930;52.766;6.884;2023-05-29T00:41:48;9.80;99.90
53045;DHT22;38930;52.766;6.884;2023-05-29T00:44:20;9.80;99.90
53045;DHT22;38930;52.766;6.884;2023-05-29T00:46:50;9.80;99.90
53045;DHT22;38930;52.766;6.884;2023-05-29T00:49:18;9.80;99.90
53045;DHT22;38930;52.766;6.884;2023-05-29T00:51:44;9.80;99.90
53045;DHT22;38930;52.766;6.884;2023-05-29T00:54:12;9.70;99.90
53045;DHT22;38930;52.766;6.884;2023-05-29T00:56:40;9.70;99.90
53045;DHT22;38930;52.766;6.884;2023-05-29T00:59:09;9.60;99.90
53045;DHT22;38930;52.766;6.884;2023-05-29T01:01:35;9.60;99.90
53045;DHT22;38930;52.766;6.884;2023-05-29T01:04:03;9.60;99.90
53045;DHT22;38930;52.766;6.884;2023-05-29T01:06:32;9.60;99.90
53045;DHT22;38930;52.766;6.884;2023-05-29T01:08:57;9.50;99.90
53045;DHT22;38930;52.766;6.884;2023-05-29T01:11:29;9.50;99.90
53045;DHT22;38930;52.766;6.884;2023-05-29T01:14:00;9.50;99.90
53045;DHT22;38930;52.766;6.884;2023-05-29T01:16:32;9.50;99.90
53045;DHT22;38930;52.766;6.884;2023-05-29T01:19:34;9.40;99.90
53045;DHT22;38930;52.766;6.884;2023-05-29T01:25:20;9.30;99.90
53045;DHT22;38930;52.766;6.884;2023-05-29T01:27:47;10.00;99.90
53045;DHT22;38930;52.766;6.884;2023-05-29T01:30:15;9.30;99.90
53045;DHT22;38930;52.766;6.884;2023-05-29T01:32:43;9.30;99.90
53045;DHT22;38930;52.766;6.884;2023-05-29T01:35:08;9.20;99.90
53045;DHT22;38930;52.766;6.884;2023-05-29T01:37:34;9.20;99.90
53045;DHT22;38930;52.766;6.884;2023-05-29T01:40:00;9.20;99.90
53045;DHT22;38930;52.766;6.884;2023-05-29T01:42:27;9.20;99.90
53045;DHT22;38930;52.766;6.884;2023-05-29T01:44:55;9.20;99.90
53045;DHT22;38930;52.766;6.884;2023-05-29T01:47:22;9.80;99.90
53045;DHT22;38930;52.766;6.884;2023-05-29T01:49:50;9.20;99.90
53045;DHT22;38930;52.766;6.884;2023-05-29T01:52:16;9.20;99.90
53045;DHT22;38930;52.766;6.884;2023-05-29T01:54:43;9.20;99.90
53045;DHT22;38930;52.766;6.884;2023-05-29T01:57:09;9.20;99.90
53045;DHT22;38930;52.766;6.884;2023-05-29T01:59:36;9.20;99.90
53045;DHT22;38930;52.766;6.884;2023-05-29T02:02:09;9.10;99.90
53045;DHT22;38930;52.766;6.884;2023-05-29T02:04:35;9.10;99.90
53045;DHT22;38930;52.766;6.884;2023-05-29T02:07:01;9.00;99.90
53045;DHT22;38930;52.766;6.884;2023-05-29T02:09:27;9.00;99.90
53045;DHT22;38930;52.766;6.884;2023-05-29T02:11:52;9.80;99.90
53045;DHT22;38930;52.766;6.884;2023-05-29T02:14:18;9.00;99.90
53045;DHT22;38930;52.766;6.884;2023-05-29T02:16:44;9.00;99.90
53045;DHT22;38930;52.766;6.884;2023-05-29T02:19:10;9.00;99.90
53045;DHT22;38930;52.766;6.884;2023-05-29T02:21:39;9.20;99.90
53045;DHT22;38930;52.766;6.884;2023-05-29T02:24:06;8.90;99.90
53045;DHT22;38930;52.766;6.884;2023-05-29T02:26:32;9.30;99.90
53045;DHT22;38930;52.766;6.884;2023-05-29T02:28:58;9.70;99.90
53045;DHT22;38930;52.766;6.884;2023-05-29T02:31:24;8.80;99.90
53045;DHT22;38930;52.766;6.884;2023-05-29T02:33:49;8.80;99.90
53045;DHT22;38930;52.766;6.884;2023-05-29T02:36:15;8.70;99.90
53045;DHT22;38930;52.766;6.884;2023-05-29T02:38:41;8.70;99.90
53045;DHT22;38930;52.766;6.884;2023-05-29T02:41:07;8.80;99.90
53045;DHT22;38930;52.766;6.884;2023-05-29T02:43:34;9.40;99.90
53045;DHT22;38930;52.766;6.884;2023-05-29T02:45:59;8.70;99.90
53045;DHT22;38930;52.766;6.884;2023-05-29T02:48:25;8.70;99.90
53045;DHT22;38930;52.766;6.884;2023-05-29T02:50:51;8.70;99.90
53045;DHT22;38930;52.766;6.884;2023-05-29T02:53:17;8.60;99.90
53045;DHT22;38930;52.766;6.884;2023-05-29T02:55:43;8.60;99.90
53045;DHT22;38930;52.766;6.884;2023-05-29T02:58:09;8.70;99.90
53045;DHT22;38930;52.766;6.884;2023-05-29T03:00:37;8.60;99.90
53045;DHT22;38930;52.766;6.884;2023-05-29T03:03:02;8.60;99.90
53045;DHT22;38930;52.766;6.884;2023-05-29T03:05:28;8.60;99.90
53045;DHT22;38930;52.766;6.884;2023-05-29T03:07:54;9.10;99.90
53045;DHT22;38930;52.766;6.884;2023-05-29T03:10:19;8.60;99.90
53045;DHT22;38930;52.766;6.884;2023-05-29T03:12:46;8.60;99.90
53045;DHT22;38930;52.766;6.884;2023-05-29T03:15:12;8.50;99.90
53045;DHT22;38930;52.766;6.884;2023-05-29T03:17:37;8.50;99.90
53045;DHT22;38930;52.766;6.884;2023-05-29T03:20:04;8.50;99.90
53045;DHT22;38930;52.766;6.884;2023-05-29T03:22:32;8.50;99.90
53045;DHT22;38930;52.766;6.884;2023-05-29T03:24:57;8.50;99.90
53045;DHT22;38930;52.766;6.884;2023-05-29T03:27:23;8.50;99.90
53045;DHT22;38930;52.766;6.884;2023-05-29T03:29:49;8.50;99.90
53045;DHT22;38930;52.766;6.884;2023-05-29T03:32:14;8.40;99.90
53045;DHT22;38930;52.766;6.884;2023-05-29T03:34:40;8.50;99.90
53045;DHT22;38930;52.766;6.884;2023-05-29T03:37:05;8.50;99.90
53045;DHT22;38930;52.766;6.884;2023-05-29T03:39:31;8.50;99.90
53045;DHT22;38930;52.766;6.884;2023-05-29T03:41:57;8.50;99.90
53045;DHT22;38930;52.766;6.884;2023-05-29T03:44:22;8.50;99.90
53045;DHT22;38930;52.766;6.884;2023-05-29T03:46:49;8.70;99.90
53045;DHT22;38930;52.766;6.884;2023-05-29T03:49:15;8.50;99.90
53045;DHT22;38930;52.766;6.884;2023-05-29T03:51:41;8.90;99.90
53045;DHT22;38930;52.766;6.884;2023-05-29T03:54:06;8.50;99.90
53045;DHT22;38930;52.766;6.884;2023-05-29T03:56:32;8.50;99.90
53045;DHT22;38930;52.766;6.884;2023-05-29T03:58:57;9.20;99.90
53045;DHT22;38930;52.766;6.884;2023-05-29T04:01:23;8.70;99.90
53045;DHT22;38930;52.766;6.884;2023-05-29T04:03:49;8.60;99.90
53045;DHT22;38930;52.766;6.884;2023-05-29T04:06:15;8.60;99.90
53045;DHT22;38930;52.766;6.884;2023-05-29T04:08:41;8.60;99.90
53045;DHT22;38930;52.766;6.884;2023-05-29T04:11:07;8.70;99.90
53045;DHT22;38930;52.766;6.884;2023-05-29T04:13:32;8.70;99.90
53045;DHT22;38930;52.766;6.884;2023-05-29T04:15:58;8.70;99.90
53045;DHT22;38930;52.766;6.884;2023-05-29T04:18:24;8.70;99.90
53045;DHT22;38930;52.766;6.884;2023-05-29T04:20:51;8.80;99.90
53045;DHT22;38930;52.766;6.884;2023-05-29T04:23:16;9.10;99.90
53045;DHT22;38930;52.766;6.884;2023-05-29T04:25:42;8.90;99.90
53045;DHT22;38930;52.766;6.884;2023-05-29T04:28:09;9.00;99.90
53045;DHT22;38930;52.766;6.884;2023-05-29T04:30:36;9.50;99.90
53045;DHT22;38930;52.766;6.884;2023-05-29T04:33:02;9.10;99.90
53045;DHT22;38930;52.766;6.884;2023-05-29T04:35:28;9.00;99.90
53045;DHT22;38930;52.766;6.884;2023-05-29T04:37:54;9.20;99.90
53045;DHT22;38930;52.766;6.884;2023-05-29T04:40:22;9.20;99.90
53045;DHT22;38930;52.766;6.884;2023-05-29T04:42:47;9.30;99.90
53045;DHT22;38930;52.766;6.884;2023-05-29T04:45:13;9.40;99.90
53045;DHT22;38930;52.766;6.884;2023-05-29T04:47:39;9.40;99.90
53045;DHT22;38930;52.766;6.884;2023-05-29T04:50:15;9.50;99.90
53045;DHT22;38930;52.766;6.884;2023-05-29T04:52:41;9.50;99.90
53045;DHT22;38930;52.766;6.884;2023-05-29T04:55:08;9.60;99.90
53045;DHT22;38930;52.766;6.884;2023-05-29T04:57:34;9.60;99.90
53045;DHT22;38930;52.766;6.884;2023-05-29T05:00:00;9.70;99.90
53045;DHT22;38930;52.766;6.884;2023-05-29T05:02:25;9.80;99.90
53045;DHT22;38930;52.766;6.884;2023-05-29T05:04:51;9.80;99.90
53045;DHT22;38930;52.766;6.884;2023-05-29T05:07:16;9.90;99.90
53045;DHT22;38930;52.766;6.884;2023-05-29T05:09:42;10.00;99.90
53045;DHT22;38930;52.766;6.884;2023-05-29T05:12:08;10.00;99.90
53045;DHT22;38930;52.766;6.884;2023-05-29T05:14:34;10.10;99.90
53045;DHT22;38930;52.766;6.884;2023-05-29T05:17:00;10.10;99.90
53045;DHT22;38930;52.766;6.884;2023-05-29T05:19:25;10.10;99.90
53045;DHT22;38930;52.766;6.884;2023-05-29T05:21:51;10.80;99.90
53045;DHT22;38930;52.766;6.884;2023-05-29T05:24:16;10.50;99.90
53045;DHT22;38930;52.766;6.884;2023-05-29T05:26:42;10.70;99.90
53045;DHT22;38930;52.766;6.884;2023-05-29T05:29:07;10.90;99.90
53045;DHT22;38930;52.766;6.884;2023-05-29T05:31:33;11.10;99.90
53045;DHT22;38930;52.766;6.884;2023-05-29T05:33:59;11.20;99.90
53045;DHT22;38930;52.766;6.884;2023-05-29T05:36:24;11.30;99.90
53045;DHT22;38930;52.766;6.884;2023-05-29T05:38:50;11.90;99.90
53045;DHT22;38930;52.766;6.884;2023-05-29T05:41:15;11.80;99.90
53045;DHT22;38930;52.766;6.884;2023-05-29T05:43:41;12.00;99.90
53045;DHT22;38930;52.766;6.884;2023-05-29T05:46:07;12.10;99.90
53045;DHT22;38930;52.766;6.884;2023-05-29T05:48:32;12.40;99.90
53045;DHT22;38930;52.766;6.884;2023-05-29T05:50:58;12.40;99.90
53045;DHT22;38930;52.766;6.884;2023-05-29T05:53:23;12.50;99.90
53045;DHT22;38930;52.766;6.884;2023-05-29T05:55:49;12.70;99.90
53045;DHT22;38930;52.766;6.884;2023-05-29T05:58:15;12.70;99.90
53045;DHT22;38930;52.766;6.884;2023-05-29T06:00:40;12.80;99.90
53045;DHT22;38930;52.766;6.884;2023-05-29T06:03:07;12.90;99.90
53045;DHT22;38930;52.766;6.884;2023-05-29T06:05:33;12.80;99.90
53045;DHT22;38930;52.766;6.884;2023-05-29T06:08:01;12.90;99.90
53045;DHT22;38930;52.766;6.884;2023-05-29T06:10:27;13.10;99.90
53045;DHT22;38930;52.766;6.884;2023-05-29T06:12:53;12.90;99.90
53045;DHT22;38930;52.766;6.884;2023-05-29T06:15:19;13.00;99.90
53045;DHT22;38930;52.766;6.884;2023-05-29T06:17:44;13.10;99.90
53045;DHT22;38930;52.766;6.884;2023-05-29T06:20:10;13.00;99.90
53045;DHT22;38930;52.766;6.884;2023-05-29T06:22:37;13.00;99.90
53045;DHT22;38930;52.766;6.884;2023-05-29T06:25:03;13.10;99.90
53045;DHT22;38930;52.766;6.884;2023-05-29T06:27:28;13.10;99.90
53045;DHT22;38930;52.766;6.884;2023-05-29T06:29:54;13.20;99.90
53045;DHT22;38930;52.766;6.884;2023-05-29T06:32:20;13.60;99.90
53045;DHT22;38930;52.766;6.884;2023-05-29T06:34:45;13.50;99.90
53045;DHT22;38930;52.766;6.884;2023-05-29T06:37:11;13.60;99.90
53045;DHT22;38930;52.766;6.884;2023-05-29T06:39:36;13.60;99.90
53045;DHT22;38930;52.766;6.884;2023-05-29T06:42:02;13.70;99.90
53045;DHT22;38930;52.766;6.884;2023-05-29T06:44:28;13.60;99.90
53045;DHT22;38930;52.766;6.884;2023-05-29T06:46:53;13.60;99.90
53045;DHT22;38930;52.766;6.884;2023-05-29T06:49:19;13.70;99.90
53045;DHT22;38930;52.766;6.884;2023-05-29T06:51:45;13.70;99.90
53045;DHT22;38930;52.766;6.884;2023-05-29T06:54:10;13.70;99.90
53045;DHT22;38930;52.766;6.884;2023-05-29T06:56:36;13.70;99.90
53045;DHT22;38930;52.766;6.884;2023-05-29T06:59:01;13.90;99.90
53045;DHT22;38930;52.766;6.884;2023-05-29T07:01:27;14.00;99.90
53045;DHT22;38930;52.766;6.884;2023-05-29T07:03:53;14.10;99.90
53045;DHT22;38930;52.766;6.884;2023-05-29T07:06:19;14.00;99.90
53045;DHT22;38930;52.766;6.884;2023-05-29T07:08:45;14.20;99.90
53045;DHT22;38930;52.766;6.884;2023-05-29T07:11:10;14.30;99.90
53045;DHT22;38930;52.766;6.884;2023-05-29T07:13:36;14.30;99.90
53045;DHT22;38930;52.766;6.884;2023-05-29T07:16:02;14.30;99.90
53045;DHT22;38930;52.766;6.884;2023-05-29T07:18:27;14.40;99.90
53045;DHT22;38930;52.766;6.884;2023-05-29T07:20:56;14.40;99.90
53045;DHT22;38930;52.766;6.884;2023-05-29T07:23:22;14.40;99.90
53045;DHT22;38930;52.766;6.884;2023-05-29T07:25:47;14.30;99.90
53045;DHT22;38930;52.766;6.884;2023-05-29T07:28:13;14.30;99.90
53045;DHT22;38930;52.766;6.884;2023-05-29T07:30:38;14.60;99.90
53045;DHT22;38930;52.766;6.884;2023-05-29T07:33:04;14.50;99.90
53045;DHT22;38930;52.766;6.884;2023-05-29T07:35:30;14.60;99.90
53045;DHT22;38930;52.766;6.884;2023-05-29T07:37:58;14.70;99.90
53045;DHT22;38930;52.766;6.884;2023-05-29T07:40:24;14.80;99.90
53045;DHT22;38930;52.766;6.884;2023-05-29T07:42:49;14.90;99.90
53045;DHT22;38930;52.766;6.884;2023-05-29T07:45:15;14.80;99.90
53045;DHT22;38930;52.766;6.884;2023-05-29T07:47:40;14.80;99.90
53045;DHT22;38930;52.766;6.884;2023-05-29T07:50:07;14.80;99.90
53045;DHT22;38930;52.766;6.884;2023-05-29T07:52:33;14.80;99.90
53045;DHT22;38930;52.766;6.884;2023-05-29T07:54:59;14.90;99.90
53045;DHT22;38930;52.766;6.884;2023-05-29T07:57:27;15.00;99.90
53045;DHT22;38930;52.766;6.884;2023-05-29T07:59:53;14.90;99.90
53045;DHT22;38930;52.766;6.884;2023-05-29T08:02:19;14.90;99.90
53045;DHT22;38930;52.766;6.884;2023-05-29T08:04:44;15.00;99.90
53045;DHT22;38930;52.766;6.884;2023-05-29T08:07:10;15.00;99.90
53045;DHT22;38930;52.766;6.884;2023-05-29T08:09:36;15.10;99.90
53045;DHT22;38930;52.766;6.884;2023-05-29T08:12:01;15.20;99.90
53045;DHT22;38930;52.766;6.884;2023-05-29T08:14:27;15.30;99.90
53045;DHT22;38930;52.766;6.884;2023-05-29T08:16:54;15.50;99.90
53045;DHT22;38930;52.766;6.884;2023-05-29T08:19:19;15.50;99.90
53045;DHT22;38930;52.766;6.884;2023-05-29T08:21:45;15.40;99.90
53045;DHT22;38930;52.766;6.884;2023-05-29T08:24:11;15.50;99.90
53045;DHT22;38930;52.766;6.884;2023-05-29T08:26:37;15.60;99.90
53045;DHT22;38930;52.766;6.884;2023-05-29T08:29:03;15.50;99.90
53045;DHT22;38930;52.766;6.884;2023-05-29T08:31:30;15.50;99.90
53045;DHT22;38930;52.766;6.884;2023-05-29T08:33:55;15.50;99.90
53045;DHT22;38930;52.766;6.884;2023-05-29T08:36:21;15.60;99.90
53045;DHT22;38930;52.766;6.884;2023-05-29T08:38:48;15.60;99.90
53045;DHT22;38930;52.766;6.884;2023-05-29T08:41:42;15.50;99.90
53045;DHT22;38930;52.766;6.884;2023-05-29T08:44:13;15.60;99.90
53045;DHT22;38930;52.766;6.884;2023-05-29T08:46:40;15.80;99.90
53045;DHT22;38930;52.766;6.884;2023-05-29T08:49:08;15.70;99.90
53045;DHT22;38930;52.766;6.884;2023-05-29T08:51:37;16.00;99.90
53045;DHT22;38930;52.766;6.884;2023-05-29T08:54:08;16.00;99.90
53045;DHT22;38930;52.766;6.884;2023-05-29T08:56:34;16.30;99.90
53045;DHT22;38930;52.766;6.884;2023-05-29T08:59:01;16.10;99.90
53045;DHT22;38930;52.766;6.884;2023-05-29T09:01:28;16.30;99.90
53045;DHT22;38930;52.766;6.884;2023-05-29T09:03:54;16.20;99.90
53045;DHT22;38930;52.766;6.884;2023-05-29T09:06:22;16.30;99.90
53045;DHT22;38930;52.766;6.884;2023-05-29T09:08:48;16.20;99.90
53045;DHT22;38930;52.766;6.884;2023-05-29T09:11:14;16.30;99.90
53045;DHT22;38930;52.766;6.884;2023-05-29T09:13:40;16.50;99.90
53045;DHT22;38930;52.766;6.884;2023-05-29T09:16:06;16.60;99.90
53045;DHT22;38930;52.766;6.884;2023-05-29T09:18:32;16.90;99.90
53045;DHT22;38930;52.766;6.884;2023-05-29T09:20:58;17.10;99.90
53045;DHT22;38930;52.766;6.884;2023-05-29T09:23:25;17.10;99.90
53045;DHT22;38930;52.766;6.884;2023-05-29T09:25:52;17.30;99.90
53045;DHT22;38930;52.766;6.884;2023-05-29T09:28:20;17.00;99.90
53045;DHT22;38930;52.766;6.884;2023-05-29T09:30:47;17.10;99.90
53045;DHT22;38930;52.766;6.884;2023-05-29T09:33:14;17.10;99.90
53045;DHT22;38930;52.766;6.884;2023-05-29T09:35:49;16.90;99.90
53045;DHT22;38930;52.766;6.884;2023-05-29T09:38:17;17.00;99.90
53045;DHT22;38930;52.766;6.884;2023-05-29T09:40:43;17.00;99.90
53045;DHT22;38930;52.766;6.884;2023-05-29T09:43:16;17.00;99.90
53045;DHT22;38930;52.766;6.884;2023-05-29T09:45:48;16.90;99.90
53045;DHT22;38930;52.766;6.884;2023-05-29T09:48:18;17.20;99.90
53045;DHT22;38930;52.766;6.884;2023-05-29T09:50:44;16.90;99.90
53045;DHT22;38930;52.766;6.884;2023-05-29T09:53:24;17.00;99.90
53045;DHT22;38930;52.766;6.884;2023-05-29T09:55:54;17.00;99.90
53045;DHT22;38930;52.766;6.884;2023-05-29T09:58:20;17.30;99.90
53045;DHT22;38930;52.766;6.884;2023-05-29T10:00:46;17.40;99.90
53045;DHT22;38930;52.766;6.884;2023-05-29T10:03:14;17.40;99.90
53045;DHT22;38930;52.766;6.884;2023-05-29T10:05:41;17.40;99.90
53045;DHT22;38930;52.766;6.884;2023-05-29T10:08:18;17.50;99.90
53045;DHT22;38930;52.766;6.884;2023-05-29T10:10:46;17.60;99.90
53045;DHT22;38930;52.766;6.884;2023-05-29T10:13:14;17.70;99.90
53045;DHT22;38930;52.766;6.884;2023-05-29T10:15:46;17.80;99.90
53045;DHT22;38930;52.766;6.884;2023-05-29T10:18:35;17.60;99.90
53045;DHT22;38930;52.766;6.884;2023-05-29T10:21:02;17.60;99.90
53045;DHT22;38930;52.766;6.884;2023-05-29T10:23:29;17.60;99.90
53045;DHT22;38930;52.766;6.884;2023-05-29T10:26:00;17.60;99.90
53045;DHT22;38930;52.766;6.884;2023-05-29T10:28:30;17.70;99.90
53045;DHT22;38930;52.766;6.884;2023-05-29T10:31:09;17.80;99.90
53045;DHT22;38930;52.766;6.884;2023-05-29T10:36:42;17.90;99.90
53045;DHT22;38930;52.766;6.884;2023-05-29T10:39:09;17.70;99.90
53045;DHT22;38930;52.766;6.884;2023-05-29T10:41:35;17.90;99.90
53045;DHT22;38930;52.766;6.884;2023-05-29T10:49:25;18.00;99.90
53045;DHT22;38930;52.766;6.884;2023-05-29T10:51:51;18.00;99.90
53045;DHT22;38930;52.766;6.884;2023-05-29T10:54:22;18.00;99.90
53045;DHT22;38930;52.766;6.884;2023-05-29T10:56:53;18.00;99.90
53045;DHT22;38930;52.766;6.884;2023-05-29T10:59:20;18.00;99.90
53045;DHT22;38930;52.766;6.884;2023-05-29T11:01:46;18.20;99.30
53045;DHT22;38930;52.766;6.884;2023-05-29T11:06:47;18.30;99.90
53045;DHT22;38930;52.766;6.884;2023-05-29T11:09:35;18.30;99.90
53045;DHT22;38930;52.766;6.884;2023-05-29T11:15:10;18.40;99.90
53045;DHT22;38930;52.766;6.884;2023-05-29T11:20:16;18.40;99.90
53045;DHT22;38930;52.766;6.884;2023-05-29T11:25:14;18.60;99.90
53045;DHT22;38930;52.766;6.884;2023-05-29T11:27:41;18.80;99.90
53045;DHT22;38930;52.766;6.884;2023-05-29T11:30:08;18.80;99.90
53045;DHT22;38930;52.766;6.884;2023-05-29T11:32:34;18.70;99.90
53045;DHT22;38930;52.766;6.884;2023-05-29T11:35:09;18.80;99.90
53045;DHT22;38930;52.766;6.884;2023-05-29T11:37:38;18.90;99.90
53045;DHT22;38930;52.766;6.884;2023-05-29T11:40:08;18.80;98.10
53045;DHT22;38930;52.766;6.884;2023-05-29T11:42:35;18.60;98.30
53045;DHT22;38930;52.766;6.884;2023-05-29T11:45:15;18.60;98.70
53045;DHT22;38930;52.766;6.884;2023-05-29T11:48:00;18.60;99.50
53045;DHT22;38930;52.766;6.884;2023-05-29T11:50:28;18.60;99.90
53045;DHT22;38930;52.766;6.884;2023-05-29T11:52:56;18.60;99.60
53045;DHT22;38930;52.766;6.884;2023-05-29T11:55:23;18.70;99.50
53045;DHT22;38930;52.766;6.884;2023-05-29T11:57:49;18.70;98.70
53045;DHT22;38930;52.766;6.884;2023-05-29T12:00:16;18.60;99.00
53045;DHT22;38930;52.766;6.884;2023-05-29T12:02:42;18.60;98.90
53045;DHT22;38930;52.766;6.884;2023-05-29T12:05:09;18.50;98.30
53045;DHT22;38930;52.766;6.884;2023-05-29T12:07:38;18.40;99.50
53045;DHT22;38930;52.766;6.884;2023-05-29T12:12:35;18.40;99.90
53045;DHT22;38930;52.766;6.884;2023-05-29T12:15:01;18.40;99.90
53045;DHT22;38930;52.766;6.884;2023-05-29T12:17:31;18.70;99.90
53045;DHT22;38930;52.766;6.884;2023-05-29T12:19:57;18.70;99.40
53045;DHT22;38930;52.766;6.884;2023-05-29T12:22:39;18.80;98.80
53045;DHT22;38930;52.766;6.884;2023-05-29T12:25:11;18.80;98.70
53045;DHT22;38930;52.766;6.884;2023-05-29T12:27:42;18.70;98.60
53045;DHT22;38930;52.766;6.884;2023-05-29T12:30:10;18.60;99.00
53045;DHT22;38930;52.766;6.884;2023-05-29T12:32:40;18.60;99.90
53045;DHT22;38930;52.766;6.884;2023-05-29T12:35:11;18.50;99.70
53045;DHT22;38930;52.766;6.884;2023-05-29T12:38:09;18.50;99.60
53045;DHT22;38930;52.766;6.884;2023-05-29T12:40:34;18.50;99.90
53045;DHT22;38930;52.766;6.884;2023-05-29T12:43:07;18.50;99.90
53045;DHT22;38930;52.766;6.884;2023-05-29T12:45:36;18.50;99.80
53045;DHT22;38930;52.766;6.884;2023-05-29T12:48:02;18.40;99.90
53045;DHT22;38930;52.766;6.884;2023-05-29T12:50:29;18.20;99.90
53045;DHT22;38930;52.766;6.884;2023-05-29T12:53:00;18.40;99.90
53045;DHT22;38930;52.766;6.884;2023-05-29T12:55:31;18.40;99.90
53045;DHT22;38930;52.766;6.884;2023-05-29T12:57:59;18.60;99.90
53045;DHT22;38930;52.766;6.884;2023-05-29T13:00:25;18.80;99.50
53045;DHT22;38930;52.766;6.884;2023-05-29T13:02:51;19.00;99.90
53045;DHT22;38930;52.766;6.884;2023-05-29T13:05:17;19.20;99.70
53045;DHT22;38930;52.766;6.884;2023-05-29T13:07:47;18.90;98.60
53045;DHT22;38930;52.766;6.884;2023-05-29T13:10:13;18.60;99.90
53045;DHT22;38930;52.766;6.884;2023-05-29T13:12:39;18.50;99.50
53045;DHT22;38930;52.766;6.884;2023-05-29T13:15:05;18.50;99.90
53045;DHT22;38930;52.766;6.884;2023-05-29T13:17:31;18.70;99.90
53045;DHT22;38930;52.766;6.884;2023-05-29T13:19:57;18.90;99.40
53045;DHT22;38930;52.766;6.884;2023-05-29T13:22:22;18.80;98.40
53045;DHT22;38930;52.766;6.884;2023-05-29T13:24:48;18.70;98.90
53045;DHT22;38930;52.766;6.884;2023-05-29T13:27:14;18.80;98.90
53045;DHT22;38930;52.766;6.884;2023-05-29T13:29:42;18.60;99.30
53045;DHT22;38930;52.766;6.884;2023-05-29T13:32:08;18.80;99.30
53045;DHT22;38930;52.766;6.884;2023-05-29T13:34:33;18.90;99.30
53045;DHT22;38930;52.766;6.884;2023-05-29T13:36:59;18.90;99.30
53045;DHT22;38930;52.766;6.884;2023-05-29T13:39:27;19.10;99.20
53045;DHT22;38930;52.766;6.884;2023-05-29T13:41:53;19.10;97.80
53045;DHT22;38930;52.766;6.884;2023-05-29T13:44:19;19.10;98.60
53045;DHT22;38930;52.766;6.884;2023-05-29T13:46:44;19.20;98.70
53045;DHT22;38930;52.766;6.884;2023-05-29T13:49:10;19.30;98.80
53045;DHT22;38930;52.766;6.884;2023-05-29T13:51:36;19.30;98.50
53045;DHT22;38930;52.766;6.884;2023-05-29T13:54:02;19.20;98.30
53045;DHT22;38930;52.766;6.884;2023-05-29T13:56:29;19.20;99.10
53045;DHT22;38930;52.766;6.884;2023-05-29T13:58:54;19.30;98.20
53045;DHT22;38930;52.766;6.884;2023-05-29T14:01:20;19.20;97.90
53045;DHT22;38930;52.766;6.884;2023-05-29T14:03:46;19.00;97.80
53045;DHT22;38930;52.766;6.884;2023-05-29T14:06:12;18.80;96.60
53045;DHT22;38930;52.766;6.884;2023-05-29T14:08:38;18.90;95.90
53045;DHT22;38930;52.766;6.884;2023-05-29T14:11:03;19.00;96.20
53045;DHT22;38930;52.766;6.884;2023-05-29T14:13:29;19.00;96.50
53045;DHT22;38930;52.766;6.884;2023-05-29T14:15:55;19.00;96.40
53045;DHT22;38930;52.766;6.884;2023-05-29T14:18:22;18.90;97.40
53045;DHT22;38930;52.766;6.884;2023-05-29T14:20:51;18.90;98.10
53045;DHT22;38930;52.766;6.884;2023-05-29T14:23:17;18.80;95.90
53045;DHT22;38930;52.766;6.884;2023-05-29T14:25:43;18.90;96.50
53045;DHT22;38930;52.766;6.884;2023-05-29T14:28:08;19.10;96.50
53045;DHT22;38930;52.766;6.884;2023-05-29T14:30:35;19.10;96.00
53045;DHT22;38930;52.766;6.884;2023-05-29T14:33:00;19.10;95.40
53045;DHT22;38930;52.766;6.884;2023-05-29T14:35:26;19.10;96.30
53045;DHT22;38930;52.766;6.884;2023-05-29T14:37:52;19.10;95.50
53045;DHT22;38930;52.766;6.884;2023-05-29T14:40:17;18.90;95.50
53045;DHT22;38930;52.766;6.884;2023-05-29T14:42:43;18.90;95.80
53045;DHT22;38930;52.766;6.884;2023-05-29T14:45:09;19.00;96.00
53045;DHT22;38930;52.766;6.884;2023-05-29T14:47:37;18.90;95.60
53045;DHT22;38930;52.766;6.884;2023-05-29T14:50:03;18.70;96.10
53045;DHT22;38930;52.766;6.884;2023-05-29T14:52:29;18.80;96.10
53045;DHT22;38930;52.766;6.884;2023-05-29T14:54:55;18.70;95.40
53045;DHT22;38930;52.766;6.884;2023-05-29T14:57:21;18.90;96.30
53045;DHT22;38930;52.766;6.884;2023-05-29T14:59:46;18.80;96.00
53045;DHT22;38930;52.766;6.884;2023-05-29T15:02:12;18.90;96.30
53045;DHT22;38930;52.766;6.884;2023-05-29T15:04:37;18.90;97.50
53045;DHT22;38930;52.766;6.884;2023-05-29T15:07:03;18.90;97.50
53045;DHT22;38930;52.766;6.884;2023-05-29T15:09:29;19.00;97.30
53045;DHT22;38930;52.766;6.884;2023-05-29T15:11:55;19.00;97.00
53045;DHT22;38930;52.766;6.884;2023-05-29T15:14:20;18.80;97.40
53045;DHT22;38930;52.766;6.884;2023-05-29T15:16:46;18.70;97.40
53045;DHT22;38930;52.766;6.884;2023-05-29T15:19:12;18.70;97.20
53045;DHT22;38930;52.766;6.884;2023-05-29T15:21:37;18.40;98.20
53045;DHT22;38930;52.766;6.884;2023-05-29T15:24:03;18.40;98.10
53045;DHT22;38930;52.766;6.884;2023-05-29T15:26:29;18.40;97.70
53045;DHT22;38930;52.766;6.884;2023-05-29T15:28:54;18.30;97.30
53045;DHT22;38930;52.766;6.884;2023-05-29T15:31:20;18.30;98.30
53045;DHT22;38930;52.766;6.884;2023-05-29T15:33:48;18.20;97.80
53045;DHT22;38930;52.766;6.884;2023-05-29T15:36:14;18.20;97.90
53045;DHT22;38930;52.766;6.884;2023-05-29T15:38:41;18.30;97.80
53045;DHT22;38930;52.766;6.884;2023-05-29T15:41:07;18.20;98.10
53045;DHT22;38930;52.766;6.884;2023-05-29T15:43:33;18.20;98.00
53045;DHT22;38930;52.766;6.884;2023-05-29T15:45:58;18.10;98.50
53045;DHT22;38930;52.766;6.884;2023-05-29T15:48:24;18.10;97.70
53045;DHT22;38930;52.766;6.884;2023-05-29T15:50:50;18.00;98.90
53045;DHT22;38930;52.766;6.884;2023-05-29T15:53:15;18.00;98.00
53045;DHT22;38930;52.766;6.884;2023-05-29T15:55:41;18.20;98.20
53045;DHT22;38930;52.766;6.884;2023-05-29T15:58:07;18.20;98.00